Time;durP1;ratioP1;P1;durP2;ratioP2;P2;SDS_P1;SDS_P2;PMS_P1;PMS_P2;Temp;Humidity;BMP_temperature;BMP_pressure;BME280_temperature;BME280_humidity;BME280_pressure;Samples;Min_cycle;Max_cycle;Signal;HPM_P1;HPM_P2
2023/04/29 00:01:06;;;;;;;6.70;2.07;;;;;;;;;;6215208;23;20826;-70
2023/04/29 00:03:32;;;;;;;2.60;2.50;;;;;;;;;;6215825;23;20402;-68
2023/04/29 00:05:59;;;;;;;6.43;2.10;;;;;;;;;;6215249;23;20379;-67
2023/04/29 00:08:25;;;;;;;5.20;1.40;;;;;;;;;;6215595;23;20375;-68
2023/04/29 00:10:51;;;;;;;1.37;1.37;;;;;;;;;;6215320;23;20393;-68
2023/04/29 00:13:17;;;;;;;1.57;1.57;;;;;;;;;;6215191;23;20837;-67
2023/04/29 00:15:43;;;;;;;7.30;1.70;;;;;;;;;;6215488;23;20431;-69
2023/04/29 00:18:09;;;;;;;2.23;1.87;;;;;;;;;;6215156;23;20378;-69
2023/04/29 00:20:36;;;;;;;1.77;1.67;;;;;;;;;;6216223;23;20387;-67
2023/04/29 00:23:02;;;;;;;5.47;2.00;;;;;;;;;;6217757;23;20449;-68
2023/04/29 00:25:29;;;;;;;2.63;1.97;;;;;;;;;;6216999;23;20785;-69
2023/04/29 00:27:58;;;;;;;12.10;1.50;;;;;;;;;;6217328;23;20371;-67
2023/04/29 00:30:24;;;;;;;2.17;2.03;;;;;;;;;;6216846;23;20410;-70
2023/04/29 00:32:50;;;;;;;1.87;1.70;;;;;;;;;;6216939;23;20371;-71
2023/04/29 00:35:16;;;;;;;1.50;1.50;;;;;;;;;;6217133;23;20410;-71
2023/04/29 00:37:42;;;;;;;2.10;1.47;;;;;;;;;;6217397;23;20387;-70
2023/04/29 00:40:08;;;;;;;4.53;1.80;;;;;;;;;;6216580;23;20370;-69
2023/04/29 00:42:34;;;;;;;1.77;1.70;;;;;;;;;;6216764;23;20441;-70
2023/04/29 00:45:01;;;;;;;1.83;1.50;;;;;;;;;;6217547;23;20423;-71
2023/04/29 00:47:27;;;;;;;2.07;1.80;;;;;;;;;;6217421;23;20375;-68
2023/04/29 00:49:53;;;;;;;1.70;1.60;;;;;;;;;;6216682;23;20454;-66
2023/04/29 00:52:19;;;;;;;1.20;1.20;;;;;;;;;;6217084;23;20371;-67
2023/04/29 00:54:45;;;;;;;2.47;1.80;;;;;;;;;;6217925;23;20698;-67
2023/04/29 00:57:11;;;;;;;1.90;1.80;;;;;;;;;;6216923;23;20865;-67
2023/04/29 00:59:37;;;;;;;7.40;1.73;;;;;;;;;;6216582;23;20425;-67
2023/04/29 01:02:03;;;;;;;1.60;1.60;;;;;;;;;;6216716;23;20382;-67
2023/04/29 01:04:30;;;;;;;1.60;1.60;;;;;;;;;;6216682;23;20429;-67
2023/04/29 01:07:14;;;;;;;2.50;2.40;;;;;;;;;;6216934;23;20375;-69
2023/04/29 01:09:49;;;;;;;1.80;1.80;;;;;;;;;;6216795;23;20390;-67
2023/04/29 01:12:21;;;;;;;4.30;2.07;;;;;;;;;;6216607;23;20813;-68
2023/04/29 01:15:07;;;;;;;2.20;2.10;;;;;;;;;;6216898;23;20375;-68
2023/04/29 01:17:40;;;;;;;1.60;1.60;;;;;;;;;;6195759;23;20383;-69
2023/04/29 01:20:06;;;;;;;2.20;1.20;;;;;;;;;;6216404;23;20402;-68
2023/04/29 01:22:32;;;;;;;3.70;2.30;;;;;;;;;;6216813;23;20382;-68
2023/04/29 01:24:58;;;;;;;1.40;1.40;;;;;;;;;;6216737;23;20509;-68
2023/04/29 01:27:33;;;;;;;3.07;1.97;;;;;;;;;;6217063;23;20368;-67
2023/04/29 01:30:10;;;;;;;1.87;1.80;;;;;;;;;;6216684;23;20735;-67
2023/04/29 01:32:43;;;;;;;1.70;1.60;;;;;;;;;;6216821;23;20784;-67
2023/04/29 01:35:15;;;;;;;2.20;2.10;;;;;;;;;;6216585;23;20757;-67
2023/04/29 01:37:49;;;;;;;1.43;1.43;;;;;;;;;;6216722;23;20380;-68
2023/04/29 01:40:33;;;;;;;1.43;1.43;;;;;;;;;;6216544;23;20356;-68
2023/04/29 01:42:59;;;;;;;0.93;0.93;;;;;;;;;;6216482;23;20397;-67
2023/04/29 01:45:26;;;;;;;4.20;1.43;;;;;;;;;;6216270;23;20804;-68
2023/04/29 01:47:54;;;;;;;2.07;1.97;;;;;;;;;;6216189;23;20367;-68
2023/04/29 01:50:21;;;;;;;1.80;1.80;;;;;;;;;;6216073;23;20367;-67
2023/04/29 01:52:48;;;;;;;3.23;1.80;;;;;;;;;;6216480;23;20434;-68
2023/04/29 01:55:14;;;;;;;1.77;1.67;;;;;;;;;;6214455;23;20429;-68
2023/04/29 01:57:40;;;;;;;3.23;1.70;;;;;;;;;;6216421;23;20483;-68
2023/04/29 02:00:07;;;;;;;1.30;1.30;;;;;;;;;;6216332;23;20363;-68
2023/04/29 02:02:33;;;;;;;1.23;1.23;;;;;;;;;;6216414;23;20382;-67
2023/04/29 02:04:59;;;;;;;5.60;1.93;;;;;;;;;;6216429;23;20371;-66
2023/04/29 02:07:26;;;;;;;1.70;1.70;;;;;;;;;;6216073;23;20375;-67
2023/04/29 02:09:51;;;;;;;2.10;1.70;;;;;;;;;;6216331;23;20399;-67
2023/04/29 02:12:18;;;;;;;4.00;1.53;;;;;;;;;;6216283;23;20681;-67
2023/04/29 02:14:46;;;;;;;1.40;1.40;;;;;;;;;;6215876;23;20853;-67
2023/04/29 02:17:12;;;;;;;2.47;2.33;;;;;;;;;;6216226;23;20438;-67
2023/04/29 02:19:38;;;;;;;1.67;1.67;;;;;;;;;;6216090;23;20375;-67
2023/04/29 02:22:04;;;;;;;2.80;1.20;;;;;;;;;;6216227;23;20383;-68
2023/04/29 02:24:30;;;;;;;2.00;1.90;;;;;;;;;;6215840;23;20383;-69
2023/04/29 02:26:57;;;;;;;6.63;1.50;;;;;;;;;;6216004;23;20426;-67
2023/04/29 02:29:25;;;;;;;1.90;1.90;;;;;;;;;;6215646;23;20924;-67
2023/04/29 02:31:51;;;;;;;7.13;1.90;;;;;;;;;;6216165;23;20383;-71
2023/04/29 02:34:17;;;;;;;1.60;1.60;;;;;;;;;;6215825;23;20709;-68
2023/04/29 02:36:43;;;;;;;2.20;1.90;;;;;;;;;;6215711;23;20467;-67
2023/04/29 02:39:09;;;;;;;2.30;1.60;;;;;;;;;;6215669;23;20371;-67
2023/04/29 02:41:35;;;;;;;1.60;1.60;;;;;;;;;;6216095;23;20461;-67
2023/04/29 02:44:01;;;;;;;2.13;2.03;;;;;;;;;;6215275;23;20909;-68
2023/04/29 02:46:27;;;;;;;1.90;1.90;;;;;;;;;;6215695;23;20414;-66
2023/04/29 02:48:52;;;;;;;3.03;1.90;;;;;;;;;;6215541;23;20375;-67
2023/04/29 02:51:19;;;;;;;1.87;1.87;;;;;;;;;;6215634;23;20379;-67
2023/04/29 02:53:45;;;;;;;1.87;1.70;;;;;;;;;;6215674;23;20375;-67
2023/04/29 02:56:11;;;;;;;1.60;1.60;;;;;;;;;;6215481;23;20525;-67
2023/04/29 02:58:37;;;;;;;1.60;1.60;;;;;;;;;;6215987;23;20375;-67
2023/04/29 03:01:03;;;;;;;2.90;1.90;;;;;;;;;;6215394;23;20379;-67
2023/04/29 03:03:29;;;;;;;2.63;1.50;;;;;;;;;;6215974;23;20378;-67
2023/04/29 03:05:55;;;;;;;1.97;1.87;;;;;;;;;;6215834;23;20382;-67
2023/04/29 03:08:21;;;;;;;2.40;1.83;;;;;;;;;;6215813;23;20514;-65
2023/04/29 03:10:49;;;;;;;1.60;1.50;;;;;;;;;;6215365;23;20398;-65
2023/04/29 03:13:15;;;;;;;2.40;2.27;;;;;;;;;;6215531;23;20848;-65
2023/04/29 03:15:43;;;;;;;1.93;1.93;;;;;;;;;;6215354;23;20422;-66
2023/04/29 03:18:09;;;;;;;1.53;1.53;;;;;;;;;;6213870;23;20383;-66
2023/04/29 03:20:35;;;;;;;1.90;1.90;;;;;;;;;;6215672;23;20383;-66
2023/04/29 03:23:01;;;;;;;2.10;2.00;;;;;;;;;;6215791;23;20462;-65
2023/04/29 03:25:27;;;;;;;3.40;1.60;;;;;;;;;;6215776;23;20465;-65
2023/04/29 03:27:53;;;;;;;2.17;1.97;;;;;;;;;;6215918;23;20390;-66
2023/04/29 03:30:19;;;;;;;3.00;1.70;;;;;;;;;;6215398;23;20414;-66
2023/04/29 03:32:45;;;;;;;4.63;2.20;;;;;;;;;;6215795;23;20841;-66
2023/04/29 03:35:11;;;;;;;1.90;1.30;;;;;;;;;;6215326;23;20423;-66
2023/04/29 03:37:38;;;;;;;1.67;1.67;;;;;;;;;;6215773;23;20498;-66
2023/04/29 03:40:05;;;;;;;1.97;1.87;;;;;;;;;;6215871;23;20383;-66
2023/04/29 03:42:31;;;;;;;1.53;1.53;;;;;;;;;;6215435;23;20414;-67
2023/04/29 03:44:57;;;;;;;2.37;2.17;;;;;;;;;;6215209;23;20430;-65
2023/04/29 03:47:23;;;;;;;2.20;2.20;;;;;;;;;;6215723;23;20490;-66
2023/04/29 03:49:48;;;;;;;1.53;1.53;;;;;;;;;;6215645;23;20391;-65
2023/04/29 03:52:15;;;;;;;1.80;1.80;;;;;;;;;;6215673;23;20383;-65
2023/04/29 03:54:41;;;;;;;1.67;1.57;;;;;;;;;;6214167;23;20379;-65
2023/04/29 03:57:07;;;;;;;2.23;2.13;;;;;;;;;;6215719;23;20482;-65
2023/04/29 03:59:33;;;;;;;1.93;1.83;;;;;;;;;;6217569;23;20375;-65
2023/04/29 04:01:59;;;;;;;1.90;1.90;;;;;;;;;;6217326;23;20469;-65
2023/04/29 04:04:25;;;;;;;3.63;1.40;;;;;;;;;;6217352;23;20371;-65
2023/04/29 04:06:51;;;;;;;2.90;2.27;;;;;;;;;;6217206;23;20890;-66
2023/04/29 04:09:20;;;;;;;1.73;1.63;;;;;;;;;;6217556;23;20367;-65
2023/04/29 04:11:46;;;;;;;4.23;1.70;;;;;;;;;;6217614;23;20446;-66
2023/04/29 04:14:12;;;;;;;1.90;1.90;;;;;;;;;;6217498;23;20697;-65
2023/04/29 04:16:38;;;;;;;1.83;1.83;;;;;;;;;;6217057;23;20921;-66
2023/04/29 04:19:04;;;;;;;1.70;1.70;;;;;;;;;;6217316;23;20371;-66
2023/04/29 04:21:30;;;;;;;1.67;1.67;;;;;;;;;;6217281;23;20402;-65
2023/04/29 04:23:56;;;;;;;1.47;1.47;;;;;;;;;;6217664;23;20378;-65
2023/04/29 04:26:22;;;;;;;1.50;1.50;;;;;;;;;;6217059;23;20907;-66
2023/04/29 04:28:48;;;;;;;1.60;1.60;;;;;;;;;;6215463;23;20383;-66
2023/04/29 04:31:15;;;;;;;1.80;1.70;;;;;;;;;;6217233;23;20495;-65
2023/04/29 04:33:41;;;;;;;2.50;1.90;;;;;;;;;;6217102;23;20379;-66
2023/04/29 04:36:07;;;;;;;1.60;1.60;;;;;;;;;;6216909;23;20522;-66
2023/04/29 04:38:33;;;;;;;3.30;1.97;;;;;;;;;;6217358;23;20414;-65
2023/04/29 04:40:59;;;;;;;3.33;2.40;;;;;;;;;;6217208;23;20979;-66
2023/04/29 04:43:26;;;;;;;2.47;2.43;;;;;;;;;;6216569;23;20426;-67
2023/04/29 04:45:52;;;;;;;4.13;2.63;;;;;;;;;;6216840;23;20839;-65
2023/04/29 04:48:18;;;;;;;1.90;1.90;;;;;;;;;;6217298;23;20371;-65
2023/04/29 04:50:44;;;;;;;1.60;1.60;;;;;;;;;;6216835;23;20390;-66
2023/04/29 04:53:10;;;;;;;1.33;1.33;;;;;;;;;;6217104;23;20375;-65
2023/04/29 04:55:36;;;;;;;2.63;2.53;;;;;;;;;;6217417;23;20454;-65
2023/04/29 04:58:02;;;;;;;1.67;1.67;;;;;;;;;;6217241;23;20679;-65
2023/04/29 05:00:28;;;;;;;2.60;1.50;;;;;;;;;;6217242;23;20901;-65
2023/04/29 05:02:54;;;;;;;2.23;2.20;;;;;;;;;;6216978;23;20700;-66
2023/04/29 05:05:20;;;;;;;5.20;4.90;;;;;;;;;;6216659;23;20430;-66
2023/04/29 05:07:46;;;;;;;1.70;1.70;;;;;;;;;;6216552;23;20869;-65
2023/04/29 05:10:12;;;;;;;2.43;2.33;;;;;;;;;;6216860;23;20383;-65
2023/04/29 05:12:38;;;;;;;2.27;1.80;;;;;;;;;;6216637;23;20412;-65
2023/04/29 05:15:04;;;;;;;2.17;1.40;;;;;;;;;;6216539;23;20375;-65
2023/04/29 05:17:30;;;;;;;1.90;1.80;;;;;;;;;;6216662;23;20394;-67
2023/04/29 05:19:56;;;;;;;1.53;1.53;;;;;;;;;;6216907;23;20371;-66
2023/04/29 05:22:22;;;;;;;4.93;1.77;;;;;;;;;;6216801;23;20861;-65
2023/04/29 05:24:48;;;;;;;1.40;1.30;;;;;;;;;;6216876;23;20454;-65
2023/04/29 05:27:14;;;;;;;3.10;1.97;;;;;;;;;;6216778;23;20809;-66
2023/04/29 05:29:40;;;;;;;1.87;1.77;;;;;;;;;;6216738;23;20419;-66
2023/04/29 05:32:06;;;;;;;1.57;1.50;;;;;;;;;;6216481;23;20379;-65
2023/04/29 05:34:33;;;;;;;1.40;1.40;;;;;;;;;;6216532;23;20380;-65
2023/04/29 05:36:59;;;;;;;1.33;1.33;;;;;;;;;;6216771;23;20466;-65
2023/04/29 05:39:25;;;;;;;1.43;1.43;;;;;;;;;;6216366;23;20414;-65
2023/04/29 05:41:51;;;;;;;1.10;1.10;;;;;;;;;;6216483;23;20387;-65
2023/04/29 05:44:17;;;;;;;1.13;1.13;;;;;;;;;;6216123;23;20430;-65
2023/04/29 05:46:43;;;;;;;1.07;1.07;;;;;;;;;;6216382;23;20376;-66
2023/04/29 05:49:09;;;;;;;0.97;0.97;;;;;;;;;;6216201;23;20379;-66
2023/04/29 05:51:35;;;;;;;1.40;1.30;;;;;;;;;;6216702;23;20856;-68
2023/04/29 05:54:01;;;;;;;1.23;1.23;;;;;;;;;;6216515;23;20394;-65
2023/04/29 05:56:27;;;;;;;1.20;1.20;;;;;;;;;;6216611;23;20442;-66
2023/04/29 05:58:53;;;;;;;1.33;1.33;;;;;;;;;;6216044;23;20909;-66
2023/04/29 06:01:20;;;;;;;2.63;0.90;;;;;;;;;;6216463;23;20422;-66
2023/04/29 06:03:46;;;;;;;0.93;0.93;;;;;;;;;;6216344;23;20393;-65
2023/04/29 06:06:12;;;;;;;1.27;1.27;;;;;;;;;;6216530;23;20379;-66
2023/04/29 06:08:38;;;;;;;1.10;1.10;;;;;;;;;;6214482;23;20387;-66
2023/04/29 06:11:04;;;;;;;1.60;1.60;;;;;;;;;;6216309;23;20392;-66
2023/04/29 06:13:32;;;;;;;1.33;1.33;;;;;;;;;;6215850;23;20375;-65
2023/04/29 06:15:57;;;;;;;1.10;1.10;;;;;;;;;;6215978;23;20423;-68
2023/04/29 06:18:23;;;;;;;1.00;1.00;;;;;;;;;;6215429;23;20751;-67
2023/04/29 06:20:49;;;;;;;1.70;1.63;;;;;;;;;;6216224;23;20378;-65
2023/04/29 06:23:15;;;;;;;6.10;2.20;;;;;;;;;;6215843;23;20888;-70
2023/04/29 06:25:41;;;;;;;2.33;2.23;;;;;;;;;;6216045;23;20846;-69
2023/04/29 06:28:07;;;;;;;1.73;1.73;;;;;;;;;;6215725;23;20406;-71
2023/04/29 06:30:33;;;;;;;1.40;1.40;;;;;;;;;;6216809;23;20375;-68
2023/04/29 06:32:59;;;;;;;1.70;1.70;;;;;;;;;;6214237;23;20383;-69
2023/04/29 06:35:25;;;;;;;1.33;1.33;;;;;;;;;;6215379;23;20441;-65
2023/04/29 06:37:52;;;;;;;1.80;1.80;;;;;;;;;;6215713;23;20383;-66
2023/04/29 06:40:17;;;;;;;1.60;1.60;;;;;;;;;;6215629;23;20751;-66
2023/04/29 06:42:44;;;;;;;1.73;1.73;;;;;;;;;;6216291;23;20367;-69
2023/04/29 06:45:10;;;;;;;3.87;3.47;;;;;;;;;;6215192;23;20375;-67
2023/04/29 06:47:36;;;;;;;2.53;2.07;;;;;;;;;;6215242;23;20372;-67
2023/04/29 06:50:02;;;;;;;7.83;1.30;;;;;;;;;;6215365;23;20364;-65
2023/04/29 06:52:28;;;;;;;8.13;1.03;;;;;;;;;;6216436;23;20386;-65
2023/04/29 06:54:54;;;;;;;1.90;1.80;;;;;;;;;;6215204;23;20859;-66
2023/04/29 06:57:20;;;;;;;1.73;1.73;;;;;;;;;;6214240;23;20426;-68
2023/04/29 06:59:47;;;;;;;2.00;1.90;;;;;;;;;;6215557;23;20391;-66
2023/04/29 07:02:13;;;;;;;2.20;1.93;;;;;;;;;;6215941;23;20390;-66
2023/04/29 07:04:39;;;;;;;1.67;1.67;;;;;;;;;;6215952;23;20405;-65
2023/04/29 07:07:05;;;;;;;3.07;1.80;;;;;;;;;;6215826;23;20375;-68
2023/04/29 07:09:31;;;;;;;1.73;1.50;;;;;;;;;;6215411;23;20749;-66
2023/04/29 07:11:57;;;;;;;1.73;1.73;;;;;;;;;;6215475;23;20398;-66
2023/04/29 07:14:23;;;;;;;2.10;2.00;;;;;;;;;;6215552;23;20383;-66
2023/04/29 07:16:53;;;;;;;1.57;1.57;;;;;;;;;;6215417;23;20556;-66
2023/04/29 07:19:19;;;;;;;2.57;1.60;;;;;;;;;;6215281;23;20865;-66
2023/04/29 07:21:45;;;;;;;9.77;1.63;;;;;;;;;;6215655;23;20375;-66
2023/04/29 07:24:11;;;;;;;1.50;1.50;;;;;;;;;;6215230;23;20367;-66
2023/04/29 07:26:37;;;;;;;1.70;1.70;;;;;;;;;;6215491;23;20454;-65
2023/04/29 07:29:03;;;;;;;1.73;1.73;;;;;;;;;;6215584;23;20383;-71
2023/04/29 07:31:29;;;;;;;1.40;1.40;;;;;;;;;;6215627;23;20498;-67
2023/04/29 07:33:55;;;;;;;1.70;1.60;;;;;;;;;;6215358;23;20374;-68
2023/04/29 07:36:22;;;;;;;2.43;2.33;;;;;;;;;;6215216;23;20518;-68
2023/04/29 07:38:48;;;;;;;4.70;1.30;;;;;;;;;;6215699;23;20414;-65
2023/04/29 07:41:14;;;;;;;2.30;2.20;;;;;;;;;;6215668;23;20414;-65
2023/04/29 07:43:40;;;;;;;1.60;1.60;;;;;;;;;;6215841;23;20431;-66
2023/04/29 07:46:06;;;;;;;2.30;2.07;;;;;;;;;;6213906;23;20395;-65
2023/04/29 07:48:37;;;;;;;2.30;2.20;;;;;;;;;;6215708;23;20749;-66
2023/04/29 07:51:03;;;;;;;2.73;1.73;;;;;;;;;;6215719;23;20671;-68
2023/04/29 07:53:29;;;;;;;5.10;2.00;;;;;;;;;;6215725;23;20410;-68
2023/04/29 07:55:55;;;;;;;1.93;1.93;;;;;;;;;;6215599;23;20455;-67
2023/04/29 07:58:21;;;;;;;2.90;2.23;;;;;;;;;;6215286;23;20383;-67
2023/04/29 08:00:47;;;;;;;2.10;2.10;;;;;;;;;;6215207;23;20379;-66
2023/04/29 08:03:13;;;;;;;3.40;3.20;;;;;;;;;;6215358;23;20457;-67
2023/04/29 08:05:39;;;;;;;2.53;2.53;;;;;;;;;;6215313;23;20371;-70
2023/04/29 08:08:06;;;;;;;2.20;2.20;;;;;;;;;;6215275;23;20375;-66
2023/04/29 08:10:32;;;;;;;3.03;2.83;;;;;;;;;;6215431;23;20380;-66
2023/04/29 08:12:58;;;;;;;2.50;2.40;;;;;;;;;;6215572;23;20420;-66
2023/04/29 08:15:24;;;;;;;5.40;2.17;;;;;;;;;;6215515;23;20426;-66
2023/04/29 08:17:50;;;;;;;2.20;2.10;;;;;;;;;;6215330;23;20725;-65
2023/04/29 08:20:16;;;;;;;2.70;2.60;;;;;;;;;;6215186;23;20423;-67
2023/04/29 08:22:42;;;;;;;3.00;2.90;;;;;;;;;;6215538;23;20379;-66
2023/04/29 08:25:08;;;;;;;2.00;2.00;;;;;;;;;;6216396;23;20371;-66
2023/04/29 08:27:34;;;;;;;3.03;2.80;;;;;;;;;;6215286;23;20379;-66
2023/04/29 08:30:00;;;;;;;3.43;2.53;;;;;;;;;;6216089;23;20402;-66
2023/04/29 08:32:26;;;;;;;3.90;3.00;;;;;;;;;;6215277;23;20832;-65
2023/04/29 08:34:52;;;;;;;2.33;2.30;;;;;;;;;;6216470;23;20376;-66
2023/04/29 08:37:19;;;;;;;3.43;2.80;;;;;;;;;;6215348;23;20919;-66
2023/04/29 08:39:46;;;;;;;3.30;3.10;;;;;;;;;;6214977;23;20462;-66
2023/04/29 08:42:12;;;;;;;2.33;2.23;;;;;;;;;;6216357;23;20911;-67
2023/04/29 08:44:40;;;;;;;4.83;2.50;;;;;;;;;;6216814;23;20430;-66
2023/04/29 08:47:06;;;;;;;2.83;2.60;;;;;;;;;;6217226;23;20386;-72
2023/04/29 08:49:32;;;;;;;2.33;2.23;;;;;;;;;;6216807;23;20371;-70
2023/04/29 08:51:59;;;;;;;3.70;2.60;;;;;;;;;;6217228;23;20415;-67
2023/04/29 08:54:27;;;;;;;2.20;2.10;;;;;;;;;;6216818;23;20853;-68
2023/04/29 08:56:53;;;;;;;2.10;2.10;;;;;;;;;;6216741;23;20920;-66
2023/04/29 08:59:19;;;;;;;2.20;2.10;;;;;;;;;;6217381;23;20422;-66
2023/04/29 09:01:50;;;;;;;2.43;2.30;;;;;;;;;;6216753;23;20379;-66
2023/04/29 09:04:28;;;;;;;1.80;1.80;;;;;;;;;;6216824;23;20391;-65
2023/04/29 09:06:56;;;;;;;2.03;1.93;;;;;;;;;;6217069;23;20391;-66
2023/04/29 09:09:22;;;;;;;1.93;1.90;;;;;;;;;;6216534;23;20375;-66
2023/04/29 09:11:48;;;;;;;2.37;2.17;;;;;;;;;;6216988;23;20383;-66
2023/04/29 09:14:14;;;;;;;2.53;2.37;;;;;;;;;;6215088;23;20409;-66
2023/04/29 09:16:40;;;;;;;3.80;2.67;;;;;;;;;;6216531;23;20533;-66
2023/04/29 09:19:06;;;;;;;2.20;2.10;;;;;;;;;;6216491;23;20885;-65
2023/04/29 09:21:32;;;;;;;2.93;2.80;;;;;;;;;;6216928;23;20505;-65
2023/04/29 09:23:59;;;;;;;3.07;2.47;;;;;;;;;;6216907;23;20388;-66
2023/04/29 09:26:26;;;;;;;2.10;2.10;;;;;;;;;;6216561;23;20411;-66
2023/04/29 09:29:19;;;;;;;2.50;2.30;;;;;;;;;;6214931;23;20387;-65
2023/04/29 09:31:45;;;;;;;2.47;2.37;;;;;;;;;;6211442;23;20475;-67
2023/04/29 09:34:12;;;;;;;1.50;1.50;;;;;;;;;;6216398;23;20376;-65
2023/04/29 09:36:53;;;;;;;2.40;2.20;;;;;;;;;;6217723;23;20445;-67
2023/04/29 09:39:21;;;;;;;2.30;2.20;;;;;;;;;;6216728;23;20415;-65
2023/04/29 09:41:50;;;;;;;2.90;2.70;;;;;;;;;;6216285;23;20661;-65
2023/04/29 09:44:16;;;;;;;4.40;2.30;;;;;;;;;;6216180;23;20418;-66
2023/04/29 09:46:42;;;;;;;2.00;2.00;;;;;;;;;;6216333;23;20398;-67
2023/04/29 09:49:22;;;;;;;2.37;2.37;;;;;;;;;;6216491;23;20382;-65
2023/04/29 09:51:51;;;;;;;2.10;2.00;;;;;;;;;;6216526;23;20430;-65
2023/04/29 09:54:21;;;;;;;2.63;2.57;;;;;;;;;;6215805;23;20458;-66
2023/04/29 09:56:49;;;;;;;2.30;2.30;;;;;;;;;;6216516;23;20827;-66
2023/04/29 09:59:15;;;;;;;1.47;1.47;;;;;;;;;;6216070;23;20394;-66
2023/04/29 10:01:41;;;;;;;3.00;2.80;;;;;;;;;;6216394;23;20390;-66
2023/04/29 10:04:08;;;;;;;2.57;2.47;;;;;;;;;;6216960;23;20367;-67
2023/04/29 10:06:34;;;;;;;3.57;3.47;;;;;;;;;;6216049;23;20783;-66
2023/04/29 10:09:00;;;;;;;2.00;2.00;;;;;;;;;;6216048;23;20466;-66
2023/04/29 10:11:27;;;;;;;2.57;2.47;;;;;;;;;;6216061;23;20415;-66
2023/04/29 10:13:53;;;;;;;2.90;2.80;;;;;;;;;;6216463;23;20367;-67
2023/04/29 10:16:29;;;;;;;3.73;3.43;;;;;;;;;;6217166;23;20441;-69
2023/04/29 10:18:55;;;;;;;2.60;2.60;;;;;;;;;;6216288;23;20410;-66
2023/04/29 10:21:27;;;;;;;8.60;3.13;;;;;;;;;;6216234;23;20682;-66
2023/04/29 10:23:54;;;;;;;3.47;3.17;;;;;;;;;;6216191;23;20372;-66
2023/04/29 10:26:21;;;;;;;2.67;2.53;;;;;;;;;;6215909;23;20378;-66
2023/04/29 10:28:47;;;;;;;2.80;2.60;;;;;;;;;;6215984;23;20746;-66
2023/04/29 10:31:15;;;;;;;2.40;2.30;;;;;;;;;;6216142;23;20744;-67
2023/04/29 10:33:44;;;;;;;3.33;3.20;;;;;;;;;;6190261;23;20478;-67
2023/04/29 10:36:11;;;;;;;1.90;1.90;;;;;;;;;;6216588;23;20951;-66
2023/04/29 10:38:42;;;;;;;2.57;2.47;;;;;;;;;;6216183;23;20367;-70
2023/04/29 10:41:10;;;;;;;2.33;2.23;;;;;;;;;;6215758;23;20400;-66
2023/04/29 10:43:36;;;;;;;2.90;2.83;;;;;;;;;;6215731;23;20423;-66
2023/04/29 10:46:21;;;;;;;2.60;2.47;;;;;;;;;;6215760;23;20892;-67
2023/04/29 10:48:48;;;;;;;2.90;2.80;;;;;;;;;;6216602;23;20363;-66
2023/04/29 10:51:28;;;;;;;2.70;2.63;;;;;;;;;;6214098;23;20446;-66
2023/04/29 10:54:01;;;;;;;3.37;3.27;;;;;;;;;;6214155;23;20865;-68
2023/04/29 10:56:36;;;;;;;3.00;2.90;;;;;;;;;;6215974;23;20435;-66
2023/04/29 10:59:02;;;;;;;2.33;2.30;;;;;;;;;;6216534;23;20367;-66
2023/04/29 11:01:45;;;;;;;2.30;2.20;;;;;;;;;;6215875;23;20375;-67
2023/04/29 11:04:11;;;;;;;2.20;2.20;;;;;;;;;;6215307;23;20387;-66
2023/04/29 11:06:40;;;;;;;1.67;1.57;;;;;;;;;;6215667;23;20367;-66
2023/04/29 11:09:13;;;;;;;2.30;2.30;;;;;;;;;;6215485;23;20383;-66
2023/04/29 11:11:43;;;;;;;2.50;2.30;;;;;;;;;;6214087;23;20478;-66
2023/04/29 11:14:12;;;;;;;2.30;2.20;;;;;;;;;;6215728;23;20403;-66
2023/04/29 11:16:46;;;;;;;1.90;1.90;;;;;;;;;;6215805;23;20481;-68
2023/04/29 11:19:14;;;;;;;3.17;2.87;;;;;;;;;;6215805;23;20370;-67
2023/04/29 11:21:40;;;;;;;2.40;2.40;;;;;;;;;;6213888;23;20402;-66
2023/04/29 11:24:06;;;;;;;3.10;2.43;;;;;;;;;;6215433;23;20375;-67
2023/04/29 11:26:35;;;;;;;2.27;2.10;;;;;;;;;;6215804;23;20403;-66
2023/04/29 11:29:01;;;;;;;2.03;1.90;;;;;;;;;;6215768;23;20371;-72
2023/04/29 11:31:31;;;;;;;2.10;2.03;;;;;;;;;;6215352;23;20383;-66
2023/04/29 11:33:57;;;;;;;2.00;2.00;;;;;;;;;;6215618;23;20379;-69
2023/04/29 11:36:24;;;;;;;2.50;2.40;;;;;;;;;;6215674;23;20431;-67
2023/04/29 11:38:51;;;;;;;2.33;2.33;;;;;;;;;;6215663;23;20371;-65
2023/04/29 11:41:17;;;;;;;2.60;2.50;;;;;;;;;;6215453;23;20379;-71
2023/04/29 11:43:45;;;;;;;2.60;2.50;;;;;;;;;;6215175;23;20458;-67
2023/04/29 11:46:12;;;;;;;2.50;2.50;;;;;;;;;;6215644;23;20370;-67
2023/04/29 11:48:45;;;;;;;1.80;1.70;;;;;;;;;;6215346;23;20401;-66
2023/04/29 11:51:11;;;;;;;2.40;2.23;;;;;;;;;;6215181;23;20359;-66
2023/04/29 11:53:37;;;;;;;2.47;2.30;;;;;;;;;;6215612;23;20386;-66
2023/04/29 11:56:03;;;;;;;2.20;2.20;;;;;;;;;;6215135;23;20760;-67
2023/04/29 11:58:29;;;;;;;2.60;2.33;;;;;;;;;;6215225;23;20451;-66
2023/04/29 12:00:57;;;;;;;2.27;2.27;;;;;;;;;;6188990;23;20472;-66
2023/04/29 12:03:23;;;;;;;2.03;2.03;;;;;;;;;;6215825;23;20389;-66
2023/04/29 12:05:53;;;;;;;1.77;1.77;;;;;;;;;;6215522;23;20901;-66
2023/04/29 12:08:23;;;;;;;2.33;2.23;;;;;;;;;;6215123;23;20478;-66
2023/04/29 12:10:49;;;;;;;2.83;2.73;;;;;;;;;;6215151;23;20375;-67
2023/04/29 12:13:16;;;;;;;3.13;2.93;;;;;;;;;;6188901;23;20469;-66
2023/04/29 12:15:43;;;;;;;1.80;1.80;;;;;;;;;;6215254;23;20418;-65
2023/04/29 12:18:09;;;;;;;2.10;2.00;;;;;;;;;;6215704;23;20395;-66
2023/04/29 12:20:35;;;;;;;2.43;2.33;;;;;;;;;;6216991;23;20903;-66
2023/04/29 12:23:23;;;;;;;2.73;2.63;;;;;;;;;;6217056;23;20458;-66
2023/04/29 12:25:49;;;;;;;1.90;1.90;;;;;;;;;;6217550;23;20762;-66
2023/04/29 12:28:16;;;;;;;2.77;2.17;;;;;;;;;;6217675;23;20381;-66
2023/04/29 12:30:44;;;;;;;2.77;2.70;;;;;;;;;;6217389;23;20482;-66
2023/04/29 12:33:10;;;;;;;2.73;2.57;;;;;;;;;;6217115;23;20467;-66
2023/04/29 12:35:39;;;;;;;3.00;2.90;;;;;;;;;;6216886;23;20433;-66
2023/04/29 12:38:05;;;;;;;2.73;2.63;;;;;;;;;;6217955;23;20379;-68
2023/04/29 12:40:32;;;;;;;2.87;2.77;;;;;;;;;;6217366;23;20414;-60
2023/04/29 12:43:06;;;;;;;2.73;2.63;;;;;;;;;;6216961;23;20371;-66
2023/04/29 12:45:33;;;;;;;3.33;3.33;;;;;;;;;;6217287;23;20401;-66
2023/04/29 12:48:00;;;;;;;2.63;2.47;;;;;;;;;;6217221;23;20410;-67
2023/04/29 12:50:33;;;;;;;3.57;3.40;;;;;;;;;;6217030;23;20868;-67
2023/04/29 12:52:59;;;;;;;2.50;2.50;;;;;;;;;;6216502;23;20402;-67
2023/04/29 12:55:25;;;;;;;2.70;2.67;;;;;;;;;;6217285;23;20469;-66
2023/04/29 12:57:52;;;;;;;3.57;3.47;;;;;;;;;;6216754;23;20786;-68
2023/04/29 13:00:19;;;;;;;1.50;1.50;;;;;;;;;;6217062;23;20386;-68
2023/04/29 13:02:46;;;;;;;3.90;2.50;;;;;;;;;;6217658;23;20834;-67
2023/04/29 13:05:12;;;;;;;2.33;2.23;;;;;;;;;;6217659;23;20411;-67
2023/04/29 13:07:38;;;;;;;3.17;3.17;;;;;;;;;;6216681;23;20403;-63
2023/04/29 13:10:05;;;;;;;3.97;3.77;;;;;;;;;;6216536;23;20418;-68
2023/04/29 13:12:31;;;;;;;3.90;3.80;;;;;;;;;;6216839;23;20379;-67
2023/04/29 13:14:57;;;;;;;3.73;3.63;;;;;;;;;;6216894;23;20409;-67
2023/04/29 13:17:23;;;;;;;3.60;3.30;;;;;;;;;;6216382;23;20889;-67
2023/04/29 13:19:49;;;;;;;3.60;3.50;;;;;;;;;;6214899;23;20387;-67
2023/04/29 13:22:15;;;;;;;4.53;3.50;;;;;;;;;;6216383;23;20375;-67
2023/04/29 13:24:44;;;;;;;3.07;3.00;;;;;;;;;;6216494;23;20380;-66
2023/04/29 13:27:10;;;;;;;4.00;3.70;;;;;;;;;;6216555;23;20411;-68
2023/04/29 13:29:36;;;;;;;2.33;2.23;;;;;;;;;;6216263;23;20372;-69
2023/04/29 13:32:02;;;;;;;2.70;2.60;;;;;;;;;;6216718;23;20387;-68
2023/04/29 13:34:28;;;;;;;3.53;3.37;;;;;;;;;;6216756;23;20925;-67
2023/04/29 13:36:54;;;;;;;3.80;3.60;;;;;;;;;;6217441;23;20431;-68
2023/04/29 13:39:22;;;;;;;4.50;4.33;;;;;;;;;;6216656;23;20368;-67
2023/04/29 13:41:48;;;;;;;3.03;2.90;;;;;;;;;;6217403;23;20459;-67
2023/04/29 13:44:14;;;;;;;3.33;2.70;;;;;;;;;;6215905;23;20528;-67
2023/04/29 13:46:40;;;;;;;3.33;2.80;;;;;;;;;;6216628;23;20826;-67
2023/04/29 13:49:06;;;;;;;2.73;2.67;;;;;;;;;;6216431;23;20834;-67
2023/04/29 13:51:32;;;;;;;2.87;2.77;;;;;;;;;;6216392;23;20371;-67
2023/04/29 13:53:57;;;;;;;3.20;3.00;;;;;;;;;;6216585;23;20378;-66
2023/04/29 13:56:24;;;;;;;2.90;2.90;;;;;;;;;;6216621;23;20518;-66
2023/04/29 13:58:51;;;;;;;3.70;3.67;;;;;;;;;;6216513;23;20722;-66
2023/04/29 14:01:17;;;;;;;2.50;2.50;;;;;;;;;;6216573;23;20505;-67
2023/04/29 14:03:44;;;;;;;4.23;2.97;;;;;;;;;;6216633;23;20458;-67
2023/04/29 14:06:10;;;;;;;5.13;2.70;;;;;;;;;;6216543;23;20486;-67
2023/04/29 14:08:36;;;;;;;2.47;2.47;;;;;;;;;;6216152;23;20410;-66
2023/04/29 14:11:02;;;;;;;3.30;3.10;;;;;;;;;;6216277;23;20445;-66
2023/04/29 14:13:28;;;;;;;2.87;2.43;;;;;;;;;;6216014;23;20379;-67
2023/04/29 14:15:55;;;;;;;3.30;3.10;;;;;;;;;;6216408;23;20468;-66
2023/04/29 14:18:21;;;;;;;3.57;3.47;;;;;;;;;;6216330;23;20417;-67
2023/04/29 14:20:47;;;;;;;3.70;3.47;;;;;;;;;;6216066;23;20818;-66
2023/04/29 14:23:13;;;;;;;4.07;3.87;;;;;;;;;;6215639;23;20391;-66
2023/04/29 14:25:39;;;;;;;2.90;2.90;;;;;;;;;;6216207;23;20454;-67
2023/04/29 14:28:05;;;;;;;4.00;3.63;;;;;;;;;;6215861;23;20465;-71
2023/04/29 14:30:31;;;;;;;3.30;3.10;;;;;;;;;;6215984;23;20710;-68
2023/04/29 14:32:57;;;;;;;2.93;2.83;;;;;;;;;;6215830;23;20375;-68
2023/04/29 14:35:23;;;;;;;3.60;3.47;;;;;;;;;;6216233;23;20382;-69
2023/04/29 14:37:49;;;;;;;3.03;2.77;;;;;;;;;;6215796;23;20389;-67
2023/04/29 14:40:15;;;;;;;7.30;2.93;;;;;;;;;;6215641;23;20458;-67
2023/04/29 14:42:41;;;;;;;3.20;3.00;;;;;;;;;;6215524;23;20384;-67